Time;durP1;ratioP1;P1;durP2;ratioP2;P2;SDS_P1;SDS_P2;PMS_P1;PMS_P2;Temp;Humidity;BMP_temperature;BMP_pressure;BME280_temperature;BME280_humidity;BME280_pressure;Samples;Min_cycle;Max_cycle;Signal;HPM_P1;HPM_P2
2022/05/30 00:00:47;;;;;;;14.55;2.80;;;12.00;99.90;;;;;;5091712;28;20222;-80
2022/05/30 00:03:13;;;;;;;18.27;3.40;;;11.90;99.90;;;;;;5092663;28;20055;-80
2022/05/30 00:05:46;;;;;;;7.30;3.03;;;11.90;99.90;;;;;;5092842;28;20035;-79
2022/05/30 00:08:13;;;;;;;12.43;2.78;;;12.00;99.90;;;;;;5091317;28;20044;-80
2022/05/30 00:10:38;;;;;;;19.88;3.88;;;11.90;99.90;;;;;;5092683;28;20031;-80
2022/05/30 00:13:06;;;;;;;12.57;3.55;;;12.00;99.90;;;;;;5091736;28;20020;-80
2022/05/30 00:15:32;;;;;;;14.68;4.78;;;11.80;99.90;;;;;;5092747;28;20391;-79
2022/05/30 00:17:58;;;;;;;13.75;3.72;;;11.80;99.90;;;;;;5092919;28;20127;-79
2022/05/30 00:20:24;;;;;;;12.85;3.33;;;11.80;99.90;;;;;;5091271;28;20050;-79
2022/05/30 00:22:51;;;;;;;9.70;4.18;;;11.80;99.90;;;;;;5078473;28;20125;-80
2022/05/30 00:25:17;;;;;;;15.05;3.33;;;11.90;99.90;;;;;;5082500;28;20062;-80
2022/05/30 00:27:43;;;;;;;20.00;4.38;;;11.80;99.90;;;;;;5071264;28;20021;-80
2022/05/30 00:30:10;;;;;;;14.38;4.10;;;11.80;99.90;;;;;;5076809;28;20032;-80
2022/05/30 00:32:37;;;;;;;13.68;2.88;;;11.80;99.90;;;;;;5092488;28;20380;-80
2022/05/30 00:35:04;;;;;;;11.63;3.17;;;11.60;99.90;;;;;;5077199;28;20020;-79
2022/05/30 00:37:30;;;;;;;11.10;3.13;;;11.80;99.90;;;;;;5092120;28;20085;-79
2022/05/30 00:39:56;;;;;;;14.00;3.65;;;11.70;99.90;;;;;;5092557;28;20027;-79
2022/05/30 00:42:27;;;;;;;12.07;2.95;;;11.80;99.90;;;;;;5091104;28;20055;-78
2022/05/30 00:44:54;;;;;;;13.02;3.38;;;11.90;99.90;;;;;;5091375;28;20499;-79
2022/05/30 00:47:21;;;;;;;14.77;3.00;;;11.90;99.90;;;;;;5092562;28;20093;-79
2022/05/30 00:49:49;;;;;;;19.00;3.08;;;12.00;99.90;;;;;;5080636;28;20024;-79
2022/05/30 00:52:26;;;;;;;13.80;2.80;;;12.00;99.90;;;;;;5090950;28;20038;-79
2022/05/30 00:54:55;;;;;;;17.10;3.28;;;11.90;99.90;;;;;;5094096;28;20043;-79
2022/05/30 00:57:25;;;;;;;13.40;2.97;;;11.90;99.90;;;;;;5095184;28;20036;-79
2022/05/30 01:00:00;;;;;;;15.63;2.85;;;11.80;99.90;;;;;;5082714;28;20025;-78
2022/05/30 01:02:29;;;;;;;11.90;2.80;;;11.90;99.90;;;;;;5081235;28;20107;-80
2022/05/30 01:07:41;;;;;;;13.93;3.60;;;11.90;99.90;;;;;;5078844;28;20040;-80
2022/05/30 01:10:11;;;;;;;19.00;3.17;;;11.90;99.90;;;;;;5088880;28;20024;-81
2022/05/30 01:12:44;;;;;;;12.63;3.47;;;11.90;99.90;;;;;;5096130;28;20024;-80
2022/05/30 01:15:13;;;;;;;10.90;3.42;;;11.90;99.90;;;;;;5096125;28;20092;-81
2022/05/30 01:17:51;;;;;;;15.48;3.67;;;11.80;99.90;;;;;;5061472;28;20051;-80
2022/05/30 01:20:44;;;;;;;13.10;4.18;;;11.70;99.90;;;;;;5077617;28;20084;-80
2022/05/30 01:23:12;;;;;;;17.85;4.03;;;11.50;99.90;;;;;;5093850;28;20032;-79
2022/05/30 01:25:59;;;;;;;14.85;3.85;;;11.40;99.90;;;;;;5094619;28;20476;-78
2022/05/30 01:28:39;;;;;;;9.32;3.42;;;11.40;99.90;;;;;;5094499;28;20031;-81
2022/05/30 01:31:07;;;;;;;15.20;4.30;;;11.40;99.90;;;;;;5094500;28;20392;-79
2022/05/30 01:33:33;;;;;;;14.02;3.60;;;11.40;99.90;;;;;;5084470;28;20023;-78
2022/05/30 01:36:00;;;;;;;15.80;3.55;;;11.30;99.90;;;;;;5090047;28;20372;-80
2022/05/30 01:38:27;;;;;;;15.02;3.45;;;11.40;99.90;;;;;;5094419;28;20020;-80
2022/05/30 01:40:56;;;;;;;13.68;3.60;;;11.40;99.90;;;;;;5094328;28;20395;-76
2022/05/30 01:43:23;;;;;;;14.50;3.53;;;11.20;99.90;;;;;;5094060;28;20024;-80
2022/05/30 01:45:54;;;;;;;13.50;3.25;;;11.20;99.90;;;;;;5094298;28;20442;-80
2022/05/30 01:48:21;;;;;;;16.00;3.83;;;11.20;99.90;;;;;;5093813;28;20035;-80
2022/05/30 01:50:47;;;;;;;15.02;3.78;;;11.00;99.90;;;;;;5087510;28;20023;-80
2022/05/30 01:53:23;;;;;;;18.42;4.32;;;11.00;99.90;;;;;;5093734;28;20107;-80
2022/05/30 01:56:09;;;;;;;16.58;4.10;;;11.00;99.90;;;;;;5095068;28;20488;-80
2022/05/30 01:58:35;;;;;;;15.55;3.58;;;10.80;99.90;;;;;;5095069;28;20077;-80
2022/05/30 02:01:23;;;;;;;12.25;3.45;;;10.80;99.90;;;;;;5095260;28;20050;-79
2022/05/30 02:03:51;;;;;;;12.88;3.13;;;10.80;99.90;;;;;;5093442;28;20028;-79
2022/05/30 02:06:19;;;;;;;11.07;3.33;;;10.70;99.90;;;;;;5093092;28;20043;-79
2022/05/30 02:08:47;;;;;;;13.65;3.78;;;10.80;99.90;;;;;;5093689;28;20028;-80
2022/05/30 02:11:14;;;;;;;17.67;3.53;;;10.80;99.90;;;;;;5076926;28;20051;-80
2022/05/30 02:13:40;;;;;;;12.82;2.70;;;10.80;99.90;;;;;;5093762;28;20038;-81
2022/05/30 02:18:58;;;;;;;13.73;2.63;;;10.90;99.90;;;;;;5093214;28;20495;-80
2022/05/30 02:21:24;;;;;;;15.57;2.72;;;10.80;99.90;;;;;;5094872;28;20094;-80
2022/05/30 02:23:50;;;;;;;7.63;2.17;;;10.90;99.90;;;;;;5093287;28;20464;-79
2022/05/30 02:26:16;;;;;;;10.27;2.28;;;10.90;99.90;;;;;;5093575;28;20035;-80
2022/05/30 02:28:42;;;;;;;11.70;2.40;;;10.90;99.90;;;;;;5093373;28;20031;-80
2022/05/30 02:31:08;;;;;;;13.38;2.38;;;11.00;99.90;;;;;;5093415;28;20020;-79
2022/05/30 02:36:40;;;;;;;11.98;2.30;;;11.00;99.90;;;;;;5092087;28;20119;-80
2022/05/30 02:39:11;;;;;;;11.27;2.60;;;11.10;99.90;;;;;;5093315;28;20046;-79
2022/05/30 02:41:55;;;;;;;9.57;2.22;;;11.10;99.90;;;;;;5094768;28;20034;-80
2022/05/30 02:44:23;;;;;;;14.88;2.60;;;11.10;99.90;;;;;;5092704;28;20563;-79
2022/05/30 02:46:51;;;;;;;15.80;2.83;;;11.00;99.90;;;;;;5093147;28;20028;-79
2022/05/30 02:49:18;;;;;;;10.48;2.90;;;10.80;99.90;;;;;;5068812;28;20021;-79
2022/05/30 02:51:45;;;;;;;17.15;3.10;;;10.60;99.90;;;;;;5092577;28;20016;-79
2022/05/30 02:54:13;;;;;;;12.82;3.22;;;10.60;99.90;;;;;;5092786;28;20031;-79
2022/05/30 02:56:58;;;;;;;13.35;3.45;;;10.50;99.90;;;;;;5093186;28;20028;-80
2022/05/30 02:59:27;;;;;;;17.10;3.97;;;10.50;99.90;;;;;;5092744;28;20032;-80
2022/05/30 03:02:00;;;;;;;14.23;3.55;;;10.70;99.90;;;;;;5092693;28;20027;-79
2022/05/30 03:04:26;;;;;;;14.73;4.10;;;10.60;99.90;;;;;;5092474;28;20032;-77
2022/05/30 03:06:52;;;;;;;11.32;3.60;;;10.50;99.90;;;;;;5092750;28;20058;-79
2022/05/30 03:09:19;;;;;;;13.27;3.22;;;10.60;99.90;;;;;;5092390;28;20425;-80
2022/05/30 03:12:03;;;;;;;9.60;3.40;;;10.60;99.90;;;;;;5094161;28;20026;-79
2022/05/30 03:14:31;;;;;;;14.75;3.92;;;10.50;99.90;;;;;;5092277;28;20032;-79
2022/05/30 03:16:56;;;;;;;21.27;4.22;;;10.50;99.90;;;;;;5092196;28;20024;-79
2022/05/30 03:19:22;;;;;;;10.68;3.20;;;10.40;99.90;;;;;;5092027;28;20161;-80
2022/05/30 03:21:49;;;;;;;14.52;3.10;;;10.30;99.90;;;;;;5092420;28;20076;-79
2022/05/30 03:24:15;;;;;;;12.02;3.47;;;10.20;99.90;;;;;;5092248;28;20493;-79
2022/05/30 03:26:41;;;;;;;9.48;3.20;;;10.20;99.90;;;;;;5093625;28;20039;-79
2022/05/30 03:29:07;;;;;;;17.00;3.50;;;10.50;99.90;;;;;;5075369;28;20103;-80
2022/05/30 03:31:36;;;;;;;15.82;3.85;;;10.60;99.90;;;;;;5091867;28;20024;-80
2022/05/30 03:34:02;;;;;;;14.15;3.33;;;10.70;99.90;;;;;;5078110;28;20112;-79
2022/05/30 03:36:28;;;;;;;10.80;3.40;;;10.80;99.90;;;;;;5092068;28;20032;-79
2022/05/30 03:39:17;;;;;;;13.95;3.17;;;10.80;99.90;;;;;;5093118;28;20044;-80
2022/05/30 03:42:01;;;;;;;10.68;3.20;;;10.80;99.90;;;;;;5093613;28;20038;-74
2022/05/30 03:44:44;;;;;;;13.45;3.50;;;10.40;99.90;;;;;;5091884;28;20032;-78
2022/05/30 03:47:10;;;;;;;7.32;3.25;;;10.00;99.90;;;;;;5091499;28;20690;-79
2022/05/30 03:49:37;;;;;;;13.85;2.97;;;10.30;99.90;;;;;;5083893;28;20024;-79
2022/05/30 03:52:03;;;;;;;12.40;3.70;;;10.40;99.90;;;;;;5091959;28;20023;-76
2022/05/30 03:54:29;;;;;;;17.65;4.00;;;10.50;99.90;;;;;;5091692;28;20020;-75
2022/05/30 03:56:55;;;;;;;7.60;3.15;;;10.80;99.90;;;;;;5091776;28;20102;-77
2022/05/30 03:59:22;;;;;;;19.05;3.83;;;10.80;99.90;;;;;;5092993;28;20481;-78
2022/05/30 04:01:48;;;;;;;12.98;2.90;;;10.40;99.90;;;;;;5091430;28;20078;-78
2022/05/30 04:04:14;;;;;;;20.25;3.47;;;10.40;99.90;;;;;;5092924;28;20042;-76
2022/05/30 04:06:40;;;;;;;11.65;3.38;;;10.60;99.90;;;;;;5092719;28;20017;-78
2022/05/30 04:09:07;;;;;;;13.52;3.58;;;10.90;99.90;;;;;;5093183;28;20028;-78
2022/05/30 04:11:51;;;;;;;7.55;2.88;;;11.10;99.90;;;;;;5093262;28;20128;-76
2022/05/30 04:14:35;;;;;;;13.60;3.22;;;11.20;99.90;;;;;;5092819;28;20071;-74
2022/05/30 04:17:07;;;;;;;19.20;3.92;;;11.30;99.90;;;;;;5090349;28;20073;-73
2022/05/30 04:19:33;;;;;;;13.20;3.28;;;11.50;99.90;;;;;;5093186;28;20028;-77
2022/05/30 04:22:00;;;;;;;19.95;4.00;;;11.70;99.90;;;;;;5092088;28;20518;-73
2022/05/30 04:24:33;;;;;;;9.25;2.65;;;11.70;99.90;;;;;;5092568;28;20404;-79
2022/05/30 04:27:03;;;;;;;10.65;3.30;;;11.70;99.90;;;;;;5092000;28;20024;-80
2022/05/30 04:29:30;;;;;;;7.38;2.85;;;11.60;99.90;;;;;;5094547;28;20034;-80
2022/05/30 04:32:35;;;;;;;14.88;3.63;;;11.70;99.90;;;;;;5093005;28;20422;-80
2022/05/30 04:35:01;;;;;;;11.40;3.15;;;11.60;99.90;;;;;;5087348;28;20081;-80
2022/05/30 04:37:30;;;;;;;18.38;3.63;;;11.60;99.90;;;;;;5100285;28;20040;-80
2022/05/30 04:40:18;;;;;;;19.50;3.67;;;11.50;99.90;;;;;;5083850;28;20115;-80
2022/05/30 04:43:02;;;;;;;14.40;3.80;;;11.60;99.90;;;;;;5096973;28;20067;-80
2022/05/30 04:46:01;;;;;;;8.48;3.00;;;11.80;99.90;;;;;;5099518;28;20124;-80
2022/05/30 04:48:32;;;;;;;16.75;3.75;;;11.70;99.90;;;;;;5097069;28;20081;-80
2022/05/30 04:50:58;;;;;;;15.20;3.35;;;11.80;99.90;;;;;;5091332;28;20092;-80
2022/05/30 04:53:25;;;;;;;10.07;2.97;;;12.10;99.90;;;;;;5091277;28;20103;-80
2022/05/30 04:56:19;;;;;;;13.40;3.17;;;12.20;99.90;;;;;;5082800;28;20028;-79
2022/05/30 04:59:04;;;;;;;12.00;3.85;;;12.10;99.90;;;;;;5093732;28;20032;-77
2022/05/30 05:01:30;;;;;;;12.95;4.07;;;11.90;99.90;;;;;;5070902;28;20472;-79
2022/05/30 05:03:57;;;;;;;17.08;4.03;;;11.90;99.90;;;;;;5078100;28;20423;-79
2022/05/30 05:06:23;;;;;;;17.60;4.07;;;12.10;99.90;;;;;;5077305;28;20109;-79
2022/05/30 05:08:57;;;;;;;11.15;3.80;;;12.30;99.90;;;;;;5077202;28;20031;-78
2022/05/30 05:11:42;;;;;;;13.48;4.00;;;12.50;99.90;;;;;;5090914;28;20031;-79
2022/05/30 05:14:17;;;;;;;12.20;3.75;;;12.50;99.90;;;;;;5078503;28;20109;-79
2022/05/30 05:17:04;;;;;;;13.07;3.47;;;12.40;99.90;;;;;;5078641;28;20149;-80
2022/05/30 05:19:32;;;;;;;15.63;3.70;;;12.20;99.90;;;;;;5078712;28;20484;-79
2022/05/30 05:21:59;;;;;;;22.55;3.97;;;12.60;99.90;;;;;;5079857;28;20035;-77
2022/05/30 05:24:25;;;;;;;19.65;4.00;;;12.60;99.90;;;;;;5076917;28;20036;-79
2022/05/30 05:27:15;;;;;;;10.93;3.10;;;13.00;99.90;;;;;;5065332;28;20030;-79
2022/05/30 05:29:40;;;;;;;20.63;4.00;;;12.90;99.90;;;;;;5078520;28;20451;-80
2022/05/30 05:32:08;;;;;;;18.80;2.53;;;12.80;99.90;;;;;;5078202;28;20111;-79
2022/05/30 05:34:33;;;;;;;19.75;3.08;;;12.90;99.90;;;;;;5092901;28;20524;-79
2022/05/30 05:36:59;;;;;;;15.27;2.75;;;12.70;99.90;;;;;;5080739;28;20031;-79
2022/05/30 05:39:30;;;;;;;12.48;3.22;;;12.60;99.90;;;;;;5091263;28;20112;-77
2022/05/30 05:41:59;;;;;;;12.70;3.38;;;12.60;99.90;;;;;;5078913;28;20078;-79
2022/05/30 05:44:25;;;;;;;16.83;3.33;;;12.40;99.90;;;;;;5072466;28;20040;-79
2022/05/30 05:46:57;;;;;;;16.55;3.58;;;11.90;99.90;;;;;;5073362;28;20020;-79
2022/05/30 05:49:24;;;;;;;13.10;4.18;;;11.80;99.90;;;;;;5077304;28;20056;-78
2022/05/30 05:51:54;;;;;;;15.15;3.80;;;11.60;99.90;;;;;;5074045;28;20035;-79
2022/05/30 05:54:25;;;;;;;15.48;4.05;;;11.70;99.90;;;;;;5073396;28;20484;-78
2022/05/30 05:56:53;;;;;;;21.73;4.43;;;11.50;99.90;;;;;;5072350;28;20449;-76
2022/05/30 05:59:29;;;;;;;26.30;4.88;;;11.50;99.90;;;;;;5073450;28;20020;-78
2022/05/30 06:01:56;;;;;;;12.02;3.97;;;11.50;99.90;;;;;;5073666;28;20385;-78
2022/05/30 06:04:23;;;;;;;24.80;4.55;;;11.70;99.90;;;;;;5082373;28;20028;-78
2022/05/30 06:07:07;;;;;;;17.17;4.13;;;11.80;99.90;;;;;;5094134;28;20574;-80
2022/05/30 06:09:51;;;;;;;16.52;4.85;;;11.90;99.90;;;;;;5076420;28;20039;-80
2022/05/30 06:12:46;;;;;;;15.38;4.40;;;11.90;99.90;;;;;;5081979;28;20032;-79
2022/05/30 06:15:17;;;;;;;16.13;4.70;;;11.50;99.90;;;;;;5081549;28;20138;-79
2022/05/30 06:18:02;;;;;;;13.48;3.50;;;11.80;99.90;;;;;;5085697;28;20592;-80
2022/05/30 06:20:28;;;;;;;16.75;4.13;;;12.10;99.90;;;;;;5080503;28;20036;-80
2022/05/30 06:22:54;;;;;;;13.73;3.10;;;12.00;99.90;;;;;;5075686;28;20082;-80
2022/05/30 06:25:46;;;;;;;13.23;3.38;;;12.00;99.90;;;;;;5079445;28;20036;-79
2022/05/30 06:28:36;;;;;;;15.73;3.78;;;12.10;99.90;;;;;;5074054;28;20032;-82
2022/05/30 06:31:16;;;;;;;19.77;3.72;;;12.20;99.90;;;;;;5089329;28;20118;-80
2022/05/30 06:33:47;;;;;;;13.68;3.58;;;12.60;99.90;;;;;;5086287;28;20070;-80
2022/05/30 06:36:18;;;;;;;12.55;3.92;;;12.50;99.90;;;;;;5101336;28;20055;-80
2022/05/30 06:38:46;;;;;;;12.75;3.20;;;12.70;99.90;;;;;;5100086;28;20066;-81
2022/05/30 06:41:29;;;;;;;20.95;4.55;;;12.70;99.90;;;;;;5072898;28;20025;-81
2022/05/30 06:44:04;;;;;;;18.75;3.45;;;12.60;99.90;;;;;;5078062;28;20131;-80
2022/05/30 06:46:51;;;;;;;14.40;3.50;;;12.70;99.90;;;;;;5082246;28;20044;-80
2022/05/30 06:49:36;;;;;;;23.63;5.03;;;12.80;99.90;;;;;;5089447;28;20046;-82
2022/05/30 06:52:03;;;;;;;13.68;3.90;;;12.70;99.90;;;;;;5081755;28;20043;-82
2022/05/30 06:54:31;;;;;;;14.82;3.92;;;12.80;99.90;;;;;;5078871;28;20029;-81
2022/05/30 06:59:41;;;;;;;12.68;3.20;;;12.90;99.90;;;;;;5095787;28;20062;-82
2022/05/30 07:02:09;;;;;;;14.20;3.78;;;13.00;99.90;;;;;;5082417;28;20473;-82
2022/05/30 07:04:53;;;;;;;11.43;3.33;;;13.00;99.90;;;;;;5089314;28;20531;-82
2022/05/30 07:07:41;;;;;;;12.02;3.65;;;13.00;99.90;;;;;;5072923;28;20035;-82
2022/05/30 07:10:30;;;;;;;;;;;13.00;99.90;;;;;;5078106;28;20427;-82
2022/05/30 07:13:26;;;;;;;17.52;3.33;;;13.00;99.90;;;;;;5079767;28;19911;-82
2022/05/30 07:15:52;;;;;;;14.43;3.38;;;13.10;99.90;;;;;;5078562;28;20077;-82
2022/05/30 07:18:37;;;;;;;14.98;3.17;;;13.00;99.90;;;;;;5077878;28;20424;-77
2022/05/30 07:21:07;;;;;;;19.33;3.67;;;13.00;99.90;;;;;;5081161;28;20028;-81
2022/05/30 07:23:37;;;;;;;14.90;3.28;;;13.00;99.90;;;;;;5092270;28;20043;-81
2022/05/30 07:26:35;;;;;;;32.67;4.40;;;13.20;99.90;;;;;;5088409;28;20024;-82
2022/05/30 07:29:08;;;;;;;13.05;3.75;;;12.90;99.90;;;;;;5077198;28;20059;-82
2022/05/30 07:31:57;;;;;;;15.05;3.45;;;12.80;99.90;;;;;;5080172;28;20031;-81
2022/05/30 07:34:42;;;;;;;11.80;3.42;;;13.10;99.90;;;;;;5095039;28;20043;-82
2022/05/30 07:37:27;;;;;;;10.45;2.90;;;13.50;99.90;;;;;;5083580;28;20493;-81
2022/05/30 07:39:56;;;;;;;10.60;3.55;;;13.70;99.90;;;;;;5088074;28;20040;-79
2022/05/30 07:42:49;;;;;;;14.27;3.85;;;13.60;99.90;;;;;;5105084;28;20030;-77
2022/05/30 07:45:34;;;;;;;19.85;3.03;;;13.70;99.90;;;;;;5094291;28;20036;-81
2022/05/30 07:48:29;;;;;;;10.10;2.63;;;13.40;99.90;;;;;;5091479;28;20064;-81
2022/05/30 07:51:28;;;;;;;15.75;3.55;;;13.70;99.90;;;;;;5086932;28;20047;-81
2022/05/30 07:54:07;;;;;;;12.40;2.70;;;13.90;99.90;;;;;;5071154;28;20044;-81
2022/05/30 07:56:37;;;;;;;15.32;2.97;;;13.60;99.90;;;;;;5094660;28;20017;-81
2022/05/30 07:59:03;;;;;;;17.20;3.13;;;14.00;99.90;;;;;;5094287;28;20098;-81
2022/05/30 08:01:29;;;;;;;12.52;3.72;;;13.60;99.90;;;;;;5097926;28;20104;-81
2022/05/30 08:03:57;;;;;;;7.70;3.10;;;13.20;99.90;;;;;;5078265;28;20032;-81
2022/05/30 08:06:35;;;;;;;10.00;2.75;;;13.40;99.90;;;;;;5103579;28;20036;-81
2022/05/30 08:09:19;;;;;;;11.77;3.13;;;13.20;99.90;;;;;;5081559;28;20081;-80
2022/05/30 08:12:04;;;;;;;13.93;3.35;;;13.20;99.90;;;;;;5087023;28;20066;-81
2022/05/30 08:15:06;;;;;;;12.57;3.20;;;13.80;99.90;;;;;;5067233;28;20044;-82
2022/05/30 08:17:55;;;;;;;16.95;3.78;;;13.20;99.90;;;;;;5086192;28;20116;-82
2022/05/30 08:20:22;;;;;;;16.58;4.20;;;13.10;99.90;;;;;;5077206;28;20481;-82
2022/05/30 08:22:48;;;;;;;18.55;3.97;;;13.40;99.90;;;;;;5089026;28;20024;-79
2022/05/30 08:25:16;;;;;;;20.95;4.35;;;13.30;99.90;;;;;;5098709;28;20044;-82
2022/05/30 08:27:43;;;;;;;17.13;4.68;;;13.10;99.90;;;;;;5085587;28;20459;-82
2022/05/30 08:30:11;;;;;;;13.80;5.00;;;13.40;99.90;;;;;;5075418;28;20032;-82
2022/05/30 08:32:42;;;;;;;15.13;3.95;;;13.30;99.90;;;;;;5072498;28;20051;-82
2022/05/30 08:35:41;;;;;;;24.00;4.20;;;13.00;99.90;;;;;;5089740;28;20040;-83
2022/05/30 08:38:08;;;;;;;23.33;4.10;;;13.30;99.90;;;;;;5107928;28;20391;-80
2022/05/30 08:43:37;;;;;;;10.68;2.58;;;13.80;99.90;;;;;;5090827;28;20485;-79
2022/05/30 08:46:09;;;;;;;15.32;4.82;;;13.90;99.90;;;;;;5087863;28;20023;-79
2022/05/30 08:48:47;;;;;;;17.30;3.45;;;14.50;99.90;;;;;;5096369;28;20045;-79
2022/05/30 08:51:22;;;;;;;10.55;2.97;;;14.00;99.90;;;;;;5101238;28;20436;-82
2022/05/30 08:54:12;;;;;;;12.10;2.65;;;13.50;99.90;;;;;;5099411;28;20066;-79
2022/05/30 08:56:49;;;;;;;16.13;2.80;;;13.70;99.90;;;;;;5075706;28;20035;-82
2022/05/30 09:00:07;;;;;;;7.38;2.15;;;13.60;99.90;;;;;;5088028;28;20235;-77
2022/05/30 09:03:02;;;;;;;13.90;2.80;;;13.40;99.90;;;;;;5079922;28;20020;-78
2022/05/30 09:05:34;;;;;;;14.48;3.08;;;13.90;99.90;;;;;;5075069;28;20047;-80
2022/05/30 09:08:09;;;;;;;11.68;2.80;;;14.40;99.90;;;;;;5080674;28;20024;-81
2022/05/30 09:10:46;;;;;;;12.15;3.00;;;15.00;99.90;;;;;;5083419;28;20420;-81
2022/05/30 09:13:20;;;;;;;8.02;2.70;;;14.90;99.90;;;;;;5086968;28;20047;-79
2022/05/30 09:16:24;;;;;;;11.63;2.28;;;14.80;99.90;;;;;;5082651;28;20063;-79
2022/05/30 09:18:53;;;;;;;8.23;2.10;;;15.00;99.90;;;;;;5078080;28;20473;-80
2022/05/30 09:21:22;;;;;;;11.03;3.30;;;14.50;98.60;;;;;;5075714;28;20017;-80
2022/05/30 09:23:49;;;;;;;9.25;2.58;;;14.50;99.90;;;;;;5090504;28;20168;-80
2022/05/30 09:26:44;;;;;;;9.50;2.97;;;15.20;98.70;;;;;;5092319;28;20764;-79
2022/05/30 09:29:19;;;;;;;16.23;3.38;;;15.20;99.10;;;;;;5076233;28;20037;-81
2022/05/30 09:32:35;;;;;;;7.95;2.88;;;15.30;99.90;;;;;;5083235;28;20134;-81
2022/05/30 09:35:27;;;;;;;11.77;2.40;;;15.90;98.50;;;;;;5088500;28;20100;-81
2022/05/30 09:38:16;;;;;;;;;;;15.60;97.50;;;;;;5111362;28;20039;-81
2022/05/30 09:40:58;;;;;;;14.35;2.30;;;15.90;96.60;;;;;;5109203;28;19908;-79
2022/05/30 09:43:56;;;;;;;10.52;2.45;;;16.60;95.20;;;;;;5101047;28;20055;-81
2022/05/30 09:47:10;;;;;;;13.60;2.10;;;17.00;95.50;;;;;;5075210;28;20043;-81
2022/05/30 09:49:56;;;;;;;9.18;2.10;;;17.10;94.00;;;;;;5095178;28;20032;-81
2022/05/30 09:52:39;;;;;;;12.55;2.03;;;16.90;92.70;;;;;;5107899;28;20371;-81
2022/05/30 09:55:47;;;;;;;3.92;1.63;;;16.30;94.20;;;;;;5089539;28;20024;-81
2022/05/30 09:58:16;;;;;;;4.72;1.42;;;16.70;93.70;;;;;;5092678;28;20032;-81
2022/05/30 10:01:04;;;;;;;6.80;1.55;;;16.50;94.90;;;;;;5106192;28;20019;-80
2022/05/30 10:03:36;;;;;;;8.77;2.50;;;16.80;93.60;;;;;;5101030;28;20066;-81
2022/05/30 10:06:24;;;;;;;13.05;2.58;;;16.60;94.20;;;;;;5092125;28;20472;-80
2022/05/30 10:09:22;;;;;;;7.07;1.80;;;16.50;94.90;;;;;;5085343;28;20020;-81
2022/05/30 10:11:56;;;;;;;12.23;2.42;;;16.60;94.00;;;;;;5089883;28;20432;-81
2022/05/30 10:14:25;;;;;;;9.18;1.90;;;16.50;95.40;;;;;;5083912;28;20114;-79
2022/05/30 10:17:28;;;;;;;9.13;2.35;;;16.90;94.70;;;;;;5076776;28;20068;-82
2022/05/30 10:19:58;;;;;;;12.88;3.10;;;15.90;95.80;;;;;;5077160;28;20051;-81
2022/05/30 10:30:04;;;;;;;7.53;2.28;;;15.40;97.50;;;;;;5088145;28;20032;-82
2022/05/30 10:33:05;;;;;;;8.80;2.45;;;15.30;97.30;;;;;;5081230;28;20036;-80
2022/05/30 10:35:31;;;;;;;9.63;2.90;;;15.10;98.10;;;;;;5072861;28;20031;-83
2022/05/30 10:38:05;;;;;;;8.23;2.58;;;15.10;97.60;;;;;;5095004;28;20024;-79
2022/05/30 10:40:46;;;;;;;14.88;2.42;;;15.20;98.20;;;;;;5082329;28;20024;-82
2022/05/30 10:43:50;;;;;;;8.98;2.78;;;15.70;97.30;;;;;;5076186;28;20417;-74
2022/05/30 10:46:34;;;;;;;13.27;3.20;;;15.50;96.10;;;;;;5086198;28;20036;-75
2022/05/30 10:49:06;;;;;;;8.23;2.20;;;15.30;97.00;;;;;;5088369;28;20378;-74
2022/05/30 10:52:00;;;;;;;8.48;3.05;;;15.80;96.80;;;;;;5075258;28;20055;-74
2022/05/30 10:54:29;;;;;;;10.88;2.50;;;15.90;96.30;;;;;;5081095;28;20032;-74
2022/05/30 10:57:20;;;;;;;8.68;2.42;;;14.70;97.70;;;;;;5077564;28;20028;-74
2022/05/30 10:59:57;;;;;;;11.73;3.22;;;15.00;96.80;;;;;;5072373;28;20027;-75
2022/05/30 11:02:57;;;;;;;7.40;2.28;;;14.80;97.30;;;;;;5072586;28;20025;-75
2022/05/30 11:05:38;;;;;;;8.40;2.72;;;15.80;96.90;;;;;;5072040;28;20439;-75
2022/05/30 11:08:16;;;;;;;8.15;2.45;;;16.50;95.00;;;;;;5074348;28;20020;-75
2022/05/30 11:11:22;;;;;;;5.97;2.42;;;16.50;94.60;;;;;;5072094;28;20039;-75
2022/05/30 11:14:20;;;;;;;7.70;2.75;;;15.90;94.00;;;;;;5020486;28;20057;-74
2022/05/30 11:17:33;;;;;;;4.28;2.22;;;16.50;93.70;;;;;;5039962;28;20057;-74
2022/05/30 11:20:24;;;;;;;13.18;2.25;;;17.00;93.80;;;;;;5073428;28;20057;-74
2022/05/30 11:22:54;;;;;;;7.95;2.50;;;16.30;93.30;;;;;;5072091;28;20111;-75
2022/05/30 11:25:48;;;;;;;6.70;2.20;;;17.00;93.60;;;;;;5073149;28;20422;-75
2022/05/30 11:28:19;;;;;;;7.30;2.53;;;17.70;92.10;;;;;;5073282;28;20473;-75
2022/05/30 11:30:52;;;;;;;6.85;2.15;;;17.90;91.80;;;;;;5071714;28;20024;-75
2022/05/30 11:33:48;;;;;;;9.43;2.00;;;18.00;90.80;;;;;;5073167;28;20515;-75
2022/05/30 11:36:40;;;;;;;5.30;1.70;;;18.20;92.20;;;;;;5089713;28;20468;-75
2022/05/30 11:39:34;;;;;;;7.85;2.08;;;18.00;91.00;;;;;;5091444;28;20036;-75
2022/05/30 11:42:14;;;;;;;6.65;2.35;;;17.80;90.20;;;;;;5084603;28;20043;-74
2022/05/30 11:44:49;;;;;;;5.80;1.90;;;18.40;90.40;;;;;;5090378;28;20078;-75
2022/05/30 11:47:31;;;;;;;7.38;1.88;;;18.80;90.20;;;;;;5066374;28;20029;-74
2022/05/30 11:50:22;;;;;;;10.88;2.30;;;18.00;90.20;;;;;;5083893;28;20043;-75
2022/05/30 11:52:51;;;;;;;6.50;1.80;;;17.60;90.60;;;;;;5093147;28;20128;-74
2022/05/30 11:55:41;;;;;;;4.35;1.77;;;17.80;90.30;;;;;;5093185;28;20034;-74
2022/05/30 11:58:17;;;;;;;8.93;2.30;;;18.60;89.00;;;;;;5092847;28;20055;-75
2022/05/30 12:00:50;;;;;;;7.47;2.13;;;18.70;89.30;;;;;;5093103;28;20458;-75
2022/05/30 12:03:35;;;;;;;7.90;2.65;;;18.80;90.00;;;;;;5092704;28;20085;-74
2022/05/30 12:06:19;;;;;;;8.07;1.90;;;18.10;89.90;;;;;;5093220;28;20037;-75
2022/05/30 12:09:03;;;;;;;6.80;2.47;;;19.10;89.40;;;;;;5091756;28;20495;-74
2022/05/30 12:11:54;;;;;;;6.88;2.65;;;19.90;87.50;;;;;;5091807;28;20069;-75
2022/05/30 12:14:45;;;;;;;9.35;2.30;;;18.80;89.00;;;;;;5082071;28;20081;-74
2022/05/30 12:17:25;;;;;;;5.50;2.05;;;18.00;88.30;;;;;;5092621;28;20476;-75
2022/05/30 12:25:48;;;;;;;9.18;2.28;;;18.30;89.10;;;;;;5092998;28;20063;-75
2022/05/30 12:28:32;;;;;;;3.60;1.67;;;17.50;90.60;;;;;;5091388;28;20051;-75
2022/05/30 12:31:06;;;;;;;7.28;2.15;;;18.30;90.70;;;;;;5078960;28;20038;-75
2022/05/30 12:33:31;;;;;;;6.80;2.28;;;18.10;91.60;;;;;;5082926;28;20036;-74
2022/05/30 12:36:06;;;;;;;12.65;2.22;;;17.70;92.00;;;;;;5088340;28;20020;-75
2022/05/30 12:38:54;;;;;;;6.00;2.00;;;17.80;92.00;;;;;;5091520;28;20039;-75
2022/05/30 12:41:38;;;;;;;13.25;3.08;;;17.50;91.50;;;;;;5092462;28;20561;-75
2022/05/30 12:44:45;;;;;;;8.70;2.90;;;18.10;92.00;;;;;;5092608;28;20044;-75
2022/05/30 12:47:18;;;;;;;8.43;2.45;;;18.20;91.10;;;;;;5065381;28;20024;-75
2022/05/30 12:49:49;;;;;;;5.95;1.90;;;17.40;91.70;;;;;;5080297;28;20032;-73
2022/05/30 12:52:18;;;;;;;9.63;2.20;;;17.70;92.40;;;;;;5095294;28;20472;-75
2022/05/30 12:54:57;;;;;;;7.30;2.67;;;17.90;92.20;;;;;;5096441;28;20032;-75
2022/05/30 12:57:36;;;;;;;11.13;2.13;;;17.70;91.40;;;;;;5096146;28;20526;-75
2022/05/30 13:00:14;;;;;;;10.02;2.38;;;17.00;91.10;;;;;;5096369;28;20016;-75
2022/05/30 13:02:57;;;;;;;15.85;2.50;;;16.90;92.00;;;;;;5096448;28;20032;-75
2022/05/30 13:05:44;;;;;;;10.30;2.40;;;16.90;93.20;;;;;;5096340;28;20044;-73
2022/05/30 13:08:47;;;;;;;5.70;2.03;;;17.10;92.30;;;;;;5095482;28;20107;-74
2022/05/30 13:11:31;;;;;;;5.30;2.00;;;17.50;92.10;;;;;;5096128;28;20122;-74
2022/05/30 13:14:12;;;;;;;8.18;2.00;;;17.40;92.10;;;;;;5081244;28;20052;-75
2022/05/30 13:16:41;;;;;;;11.15;2.33;;;17.90;92.00;;;;;;5094866;28;20039;-75
2022/05/30 13:19:11;;;;;;;13.77;2.50;;;18.30;91.40;;;;;;5096191;28;20016;-75
2022/05/30 13:21:39;;;;;;;7.47;2.42;;;18.40;91.50;;;;;;5095858;28;20503;-75
2022/05/30 13:24:25;;;;;;;10.18;2.50;;;18.10;91.00;;;;;;5089078;28;20029;-75
2022/05/30 13:26:51;;;;;;;8.68;2.30;;;17.30;91.60;;;;;;5081469;28;20465;-75
2022/05/30 13:29:17;;;;;;;8.40;1.95;;;17.80;92.10;;;;;;5096027;28;20069;-75
2022/05/30 13:31:49;;;;;;;7.68;2.28;;;17.40;91.80;;;;;;5094799;28;20365;-74
2022/05/30 13:34:21;;;;;;;8.98;2.40;;;17.30;91.50;;;;;;5081343;28;20075;-75
2022/05/30 13:36:48;;;;;;;10.50;2.53;;;17.40;91.60;;;;;;5096050;28;20028;-75
2022/05/30 13:39:14;;;;;;;8.90;2.58;;;17.50;91.50;;;;;;5095681;28;20569;-75
2022/05/30 13:41:40;;;;;;;9.73;2.50;;;17.70;91.60;;;;;;5095397;28;20361;-75
2022/05/30 13:44:11;;;;;;;8.30;3.05;;;17.90;90.80;;;;;;5095399;28;20385;-74
2022/05/30 13:46:43;;;;;;;7.78;1.80;;;17.70;90.90;;;;;;5094132;28;20028;-73
2022/05/30 13:49:09;;;;;;;6.55;2.40;;;17.50;90.70;;;;;;5089596;28;20107;-74
2022/05/30 13:51:42;;;;;;;8.65;2.13;;;17.60;91.50;;;;;;5093653;28;20035;-75
2022/05/30 13:54:09;;;;;;;11.02;2.20;;;17.70;91.60;;;;;;5076901;28;20032;-75